sensor_id;sensor_type;location;lat;lon;timestamp;P1;durP1;ratioP1;P2;durP2;ratioP2
48534;SDS011;34323;52.022;5.686;2023-11-18T00:00:08;29.60;;;16.25;;
48534;SDS011;34323;52.022;5.686;2023-11-18T00:02:37;28.98;;;16.08;;
48534;SDS011;34323;52.022;5.686;2023-11-18T00:05:03;28.65;;;15.15;;
48534;SDS011;34323;52.022;5.686;2023-11-18T00:07:32;27.63;;;15.70;;
48534;SDS011;34323;52.022;5.686;2023-11-18T00:09:57;25.05;;;15.75;;
48534;SDS011;34323;52.022;5.686;2023-11-18T00:12:23;30.92;;;16.08;;
48534;SDS011;34323;52.022;5.686;2023-11-18T00:14:51;27.77;;;16.33;;
48534;SDS011;34323;52.022;5.686;2023-11-18T00:17:17;34.45;;;18.20;;
48534;SDS011;34323;52.022;5.686;2023-11-18T00:19:43;26.60;;;16.70;;
48534;SDS011;34323;52.022;5.686;2023-11-18T00:22:09;29.10;;;14.70;;
48534;SDS011;34323;52.022;5.686;2023-11-18T00:24:37;27.88;;;16.38;;
48534;SDS011;34323;52.022;5.686;2023-11-18T00:27:03;31.23;;;16.75;;
48534;SDS011;34323;52.022;5.686;2023-11-18T00:29:35;32.15;;;18.42;;
48534;SDS011;34323;52.022;5.686;2023-11-18T00:32:03;27.33;;;16.50;;
48534;SDS011;34323;52.022;5.686;2023-11-18T00:34:29;30.98;;;16.65;;
48534;SDS011;34323;52.022;5.686;2023-11-18T00:36:55;29.27;;;16.38;;
48534;SDS011;34323;52.022;5.686;2023-11-18T00:39:27;34.50;;;17.73;;
48534;SDS011;34323;52.022;5.686;2023-11-18T00:41:53;33.08;;;17.45;;
48534;SDS011;34323;52.022;5.686;2023-11-18T00:44:18;34.80;;;17.73;;
48534;SDS011;34323;52.022;5.686;2023-11-18T00:46:44;34.15;;;17.60;;
48534;SDS011;34323;52.022;5.686;2023-11-18T00:49:10;33.65;;;16.30;;
48534;SDS011;34323;52.022;5.686;2023-11-18T00:51:36;34.95;;;19.90;;
48534;SDS011;34323;52.022;5.686;2023-11-18T00:54:03;34.45;;;20.00;;
48534;SDS011;34323;52.022;5.686;2023-11-18T00:56:30;32.75;;;18.55;;
48534;SDS011;34323;52.022;5.686;2023-11-18T00:58:56;41.25;;;17.20;;
48534;SDS011;34323;52.022;5.686;2023-11-18T01:01:22;33.92;;;18.55;;
48534;SDS011;34323;52.022;5.686;2023-11-18T01:03:48;29.77;;;16.33;;
48534;SDS011;34323;52.022;5.686;2023-11-18T01:06:13;33.17;;;18.27;;
48534;SDS011;34323;52.022;5.686;2023-11-18T01:08:45;33.03;;;18.45;;
48534;SDS011;34323;52.022;5.686;2023-11-18T01:11:15;32.03;;;17.15;;
48534;SDS011;34323;52.022;5.686;2023-11-18T01:13:44;37.65;;;18.20;;
48534;SDS011;34323;52.022;5.686;2023-11-18T01:16:19;35.13;;;19.10;;
48534;SDS011;34323;52.022;5.686;2023-11-18T01:18:45;35.90;;;17.55;;
48534;SDS011;34323;52.022;5.686;2023-11-18T01:21:11;33.83;;;18.67;;
48534;SDS011;34323;52.022;5.686;2023-11-18T01:23:37;30.90;;;17.27;;
48534;SDS011;34323;52.022;5.686;2023-11-18T01:26:04;35.45;;;18.65;;
48534;SDS011;34323;52.022;5.686;2023-11-18T01:28:39;38.95;;;18.67;;
48534;SDS011;34323;52.022;5.686;2023-11-18T01:31:08;35.15;;;18.00;;
48534;SDS011;34323;52.022;5.686;2023-11-18T01:33:34;36.70;;;17.67;;
48534;SDS011;34323;52.022;5.686;2023-11-18T01:36:07;32.42;;;18.48;;
48534;SDS011;34323;52.022;5.686;2023-11-18T01:38:34;39.40;;;18.75;;
48534;SDS011;34323;52.022;5.686;2023-11-18T01:41:02;35.15;;;18.15;;
48534;SDS011;34323;52.022;5.686;2023-11-18T01:43:30;34.55;;;18.17;;
48534;SDS011;34323;52.022;5.686;2023-11-18T01:45:56;36.35;;;17.95;;
48534;SDS011;34323;52.022;5.686;2023-11-18T01:48:28;32.65;;;18.23;;
48534;SDS011;34323;52.022;5.686;2023-11-18T01:50:56;34.33;;;17.55;;
48534;SDS011;34323;52.022;5.686;2023-11-18T01:53:23;30.45;;;16.20;;
48534;SDS011;34323;52.022;5.686;2023-11-18T01:55:49;29.35;;;16.05;;
48534;SDS011;34323;52.022;5.686;2023-11-18T01:58:15;31.13;;;15.90;;
48534;SDS011;34323;52.022;5.686;2023-11-18T02:00:45;33.03;;;16.27;;
48534;SDS011;34323;52.022;5.686;2023-11-18T02:03:14;40.60;;;19.65;;
48534;SDS011;34323;52.022;5.686;2023-11-18T02:05:40;37.13;;;18.60;;
48534;SDS011;34323;52.022;5.686;2023-11-18T02:08:07;37.38;;;20.02;;
48534;SDS011;34323;52.022;5.686;2023-11-18T02:10:36;37.83;;;19.73;;
48534;SDS011;34323;52.022;5.686;2023-11-18T02:13:34;35.15;;;17.98;;
48534;SDS011;34323;52.022;5.686;2023-11-18T02:15:59;39.45;;;20.23;;
48534;SDS011;34323;52.022;5.686;2023-11-18T02:18:29;42.78;;;20.05;;
48534;SDS011;34323;52.022;5.686;2023-11-18T02:20:55;36.20;;;18.92;;
48534;SDS011;34323;52.022;5.686;2023-11-18T02:23:27;33.55;;;19.92;;
48534;SDS011;34323;52.022;5.686;2023-11-18T02:25:53;39.03;;;17.80;;
48534;SDS011;34323;52.022;5.686;2023-11-18T02:28:22;42.05;;;19.60;;
48534;SDS011;34323;52.022;5.686;2023-11-18T02:30:49;44.55;;;18.52;;
48534;SDS011;34323;52.022;5.686;2023-11-18T02:36:05;36.28;;;19.65;;
48534;SDS011;34323;52.022;5.686;2023-11-18T02:38:35;41.13;;;20.98;;
48534;SDS011;34323;52.022;5.686;2023-11-18T02:41:10;42.13;;;20.70;;
48534;SDS011;34323;52.022;5.686;2023-11-18T02:43:37;41.65;;;20.23;;
48534;SDS011;34323;52.022;5.686;2023-11-18T02:46:05;41.28;;;19.75;;
48534;SDS011;34323;52.022;5.686;2023-11-18T02:48:33;32.80;;;18.90;;
48534;SDS011;34323;52.022;5.686;2023-11-18T02:51:00;36.80;;;19.38;;
48534;SDS011;34323;52.022;5.686;2023-11-18T02:53:26;36.15;;;18.90;;
48534;SDS011;34323;52.022;5.686;2023-11-18T02:55:52;39.75;;;19.95;;
48534;SDS011;34323;52.022;5.686;2023-11-18T02:58:18;35.50;;;18.65;;
48534;SDS011;34323;52.022;5.686;2023-11-18T03:00:44;34.38;;;18.10;;
48534;SDS011;34323;52.022;5.686;2023-11-18T03:03:10;38.90;;;19.40;;
48534;SDS011;34323;52.022;5.686;2023-11-18T03:05:36;36.08;;;18.33;;
48534;SDS011;34323;52.022;5.686;2023-11-18T03:08:03;42.97;;;19.65;;
48534;SDS011;34323;52.022;5.686;2023-11-18T03:10:34;39.75;;;19.33;;
48534;SDS011;34323;52.022;5.686;2023-11-18T03:13:00;41.33;;;20.45;;
48534;SDS011;34323;52.022;5.686;2023-11-18T03:15:25;41.95;;;19.85;;
48534;SDS011;34323;52.022;5.686;2023-11-18T03:17:52;34.22;;;19.60;;
48534;SDS011;34323;52.022;5.686;2023-11-18T03:20:18;38.97;;;20.02;;
48534;SDS011;34323;52.022;5.686;2023-11-18T03:22:48;39.33;;;19.55;;
48534;SDS011;34323;52.022;5.686;2023-11-18T03:25:15;34.83;;;18.65;;
48534;SDS011;34323;52.022;5.686;2023-11-18T03:27:41;37.45;;;18.95;;
48534;SDS011;34323;52.022;5.686;2023-11-18T03:30:09;31.63;;;17.10;;
48534;SDS011;34323;52.022;5.686;2023-11-18T03:32:36;35.08;;;18.63;;
48534;SDS011;34323;52.022;5.686;2023-11-18T03:35:03;36.85;;;18.10;;
48534;SDS011;34323;52.022;5.686;2023-11-18T03:37:33;38.10;;;18.60;;
48534;SDS011;34323;52.022;5.686;2023-11-18T03:40:08;43.72;;;19.05;;
48534;SDS011;34323;52.022;5.686;2023-11-18T03:42:39;39.50;;;19.20;;
48534;SDS011;34323;52.022;5.686;2023-11-18T03:45:11;39.60;;;19.48;;
48534;SDS011;34323;52.022;5.686;2023-11-18T03:47:36;37.78;;;20.02;;
48534;SDS011;34323;52.022;5.686;2023-11-18T03:50:02;41.47;;;19.70;;
48534;SDS011;34323;52.022;5.686;2023-11-18T03:52:28;48.42;;;21.77;;
48534;SDS011;34323;52.022;5.686;2023-11-18T03:54:54;40.70;;;19.27;;
48534;SDS011;34323;52.022;5.686;2023-11-18T03:57:23;39.40;;;20.85;;
48534;SDS011;34323;52.022;5.686;2023-11-18T03:59:49;44.80;;;20.55;;
48534;SDS011;34323;52.022;5.686;2023-11-18T04:02:15;38.10;;;18.67;;
48534;SDS011;34323;52.022;5.686;2023-11-18T04:04:41;38.35;;;20.38;;
48534;SDS011;34323;52.022;5.686;2023-11-18T04:07:06;39.00;;;20.05;;
48534;SDS011;34323;52.022;5.686;2023-11-18T04:09:32;40.00;;;21.90;;
48534;SDS011;34323;52.022;5.686;2023-11-18T04:11:58;37.33;;;19.63;;
48534;SDS011;34323;52.022;5.686;2023-11-18T04:14:24;44.35;;;21.38;;
48534;SDS011;34323;52.022;5.686;2023-11-18T04:16:50;42.13;;;21.75;;
48534;SDS011;34323;52.022;5.686;2023-11-18T04:19:16;41.78;;;20.27;;
48534;SDS011;34323;52.022;5.686;2023-11-18T04:21:42;37.45;;;20.42;;
48534;SDS011;34323;52.022;5.686;2023-11-18T04:24:12;35.15;;;19.77;;
48534;SDS011;34323;52.022;5.686;2023-11-18T04:26:38;49.53;;;21.48;;
48534;SDS011;34323;52.022;5.686;2023-11-18T04:29:04;43.58;;;20.02;;
48534;SDS011;34323;52.022;5.686;2023-11-18T04:31:29;37.10;;;19.80;;
48534;SDS011;34323;52.022;5.686;2023-11-18T04:33:55;37.00;;;20.48;;
48534;SDS011;34323;52.022;5.686;2023-11-18T04:36:21;42.22;;;20.85;;
48534;SDS011;34323;52.022;5.686;2023-11-18T04:38:47;39.10;;;20.40;;
48534;SDS011;34323;52.022;5.686;2023-11-18T04:41:12;44.05;;;22.90;;
48534;SDS011;34323;52.022;5.686;2023-11-18T04:43:38;45.80;;;22.63;;
48534;SDS011;34323;52.022;5.686;2023-11-18T04:46:06;45.78;;;22.17;;
48534;SDS011;34323;52.022;5.686;2023-11-18T04:48:32;47.13;;;23.20;;
48534;SDS011;34323;52.022;5.686;2023-11-18T04:50:58;49.80;;;23.13;;
48534;SDS011;34323;52.022;5.686;2023-11-18T04:53:24;41.80;;;22.65;;
48534;SDS011;34323;52.022;5.686;2023-11-18T04:55:50;50.42;;;22.70;;
48534;SDS011;34323;52.022;5.686;2023-11-18T04:58:16;42.17;;;21.35;;
48534;SDS011;34323;52.022;5.686;2023-11-18T05:00:42;48.25;;;22.58;;
48534;SDS011;34323;52.022;5.686;2023-11-18T05:03:08;45.97;;;23.48;;
48534;SDS011;34323;52.022;5.686;2023-11-18T05:05:35;46.38;;;22.23;;
48534;SDS011;34323;52.022;5.686;2023-11-18T05:08:03;42.15;;;21.10;;
48534;SDS011;34323;52.022;5.686;2023-11-18T05:10:31;46.58;;;22.73;;
48534;SDS011;34323;52.022;5.686;2023-11-18T05:12:58;50.88;;;21.52;;
48534;SDS011;34323;52.022;5.686;2023-11-18T05:15:23;39.00;;;20.17;;
48534;SDS011;34323;52.022;5.686;2023-11-18T05:17:50;41.85;;;20.48;;
48534;SDS011;34323;52.022;5.686;2023-11-18T05:20:16;43.45;;;21.15;;
48534;SDS011;34323;52.022;5.686;2023-11-18T05:22:42;40.08;;;19.83;;
48534;SDS011;34323;52.022;5.686;2023-11-18T05:25:08;39.63;;;18.95;;
48534;SDS011;34323;52.022;5.686;2023-11-18T05:27:34;32.22;;;17.30;;
48534;SDS011;34323;52.022;5.686;2023-11-18T05:30:00;33.97;;;17.58;;
48534;SDS011;34323;52.022;5.686;2023-11-18T05:32:26;32.42;;;18.05;;
48534;SDS011;34323;52.022;5.686;2023-11-18T05:34:53;37.70;;;17.45;;
48534;SDS011;34323;52.022;5.686;2023-11-18T05:37:20;39.38;;;19.13;;
48534;SDS011;34323;52.022;5.686;2023-11-18T05:39:46;30.25;;;17.40;;
48534;SDS011;34323;52.022;5.686;2023-11-18T05:42:14;32.63;;;16.83;;
48534;SDS011;34323;52.022;5.686;2023-11-18T05:44:40;33.60;;;18.45;;
48534;SDS011;34323;52.022;5.686;2023-11-18T05:47:06;37.10;;;19.17;;
48534;SDS011;34323;52.022;5.686;2023-11-18T05:49:32;42.20;;;19.38;;
48534;SDS011;34323;52.022;5.686;2023-11-18T05:51:58;37.75;;;19.13;;
48534;SDS011;34323;52.022;5.686;2023-11-18T05:54:24;43.30;;;17.83;;
48534;SDS011;34323;52.022;5.686;2023-11-18T05:56:50;37.38;;;17.70;;
48534;SDS011;34323;52.022;5.686;2023-11-18T05:59:16;40.63;;;18.25;;
48534;SDS011;34323;52.022;5.686;2023-11-18T06:01:42;38.78;;;18.00;;
48534;SDS011;34323;52.022;5.686;2023-11-18T06:04:08;32.63;;;17.52;;
48534;SDS011;34323;52.022;5.686;2023-11-18T06:06:34;36.92;;;17.35;;
48534;SDS011;34323;52.022;5.686;2023-11-18T06:08:59;32.13;;;17.50;;
48534;SDS011;34323;52.022;5.686;2023-11-18T06:11:30;30.08;;;16.58;;
48534;SDS011;34323;52.022;5.686;2023-11-18T06:13:56;31.08;;;16.80;;
48534;SDS011;34323;52.022;5.686;2023-11-18T06:16:22;41.30;;;17.30;;
48534;SDS011;34323;52.022;5.686;2023-11-18T06:18:54;36.63;;;17.13;;
48534;SDS011;34323;52.022;5.686;2023-11-18T06:21:21;36.22;;;17.92;;
48534;SDS011;34323;52.022;5.686;2023-11-18T06:23:57;30.35;;;17.73;;
48534;SDS011;34323;52.022;5.686;2023-11-18T06:26:23;33.78;;;18.00;;
48534;SDS011;34323;52.022;5.686;2023-11-18T06:28:51;34.75;;;17.60;;
48534;SDS011;34323;52.022;5.686;2023-11-18T06:31:18;34.80;;;18.20;;
48534;SDS011;34323;52.022;5.686;2023-11-18T06:33:45;37.33;;;18.98;;
48534;SDS011;34323;52.022;5.686;2023-11-18T06:38:47;32.47;;;17.70;;
48534;SDS011;34323;52.022;5.686;2023-11-18T06:41:15;37.95;;;18.35;;
48534;SDS011;34323;52.022;5.686;2023-11-18T06:43:42;30.10;;;17.52;;
48534;SDS011;34323;52.022;5.686;2023-11-18T06:46:21;35.75;;;18.23;;
48534;SDS011;34323;52.022;5.686;2023-11-18T06:48:52;34.88;;;17.02;;
48534;SDS011;34323;52.022;5.686;2023-11-18T06:51:22;35.05;;;18.35;;
48534;SDS011;34323;52.022;5.686;2023-11-18T06:53:52;32.33;;;17.08;;
48534;SDS011;34323;52.022;5.686;2023-11-18T06:56:25;31.52;;;17.40;;
48534;SDS011;34323;52.022;5.686;2023-11-18T06:58:51;33.45;;;17.30;;
48534;SDS011;34323;52.022;5.686;2023-11-18T07:01:17;35.65;;;18.65;;
48534;SDS011;34323;52.022;5.686;2023-11-18T07:03:43;34.70;;;18.27;;
48534;SDS011;34323;52.022;5.686;2023-11-18T07:06:11;32.28;;;17.27;;
48534;SDS011;34323;52.022;5.686;2023-11-18T07:08:39;34.33;;;17.08;;
48534;SDS011;34323;52.022;5.686;2023-11-18T07:11:05;30.65;;;16.75;;
48534;SDS011;34323;52.022;5.686;2023-11-18T07:13:31;29.02;;;15.85;;
48534;SDS011;34323;52.022;5.686;2023-11-18T07:15:59;27.15;;;16.08;;
48534;SDS011;34323;52.022;5.686;2023-11-18T07:18:28;33.13;;;17.60;;
48534;SDS011;34323;52.022;5.686;2023-11-18T07:20:55;30.50;;;16.65;;
48534;SDS011;34323;52.022;5.686;2023-11-18T07:23:21;29.35;;;15.23;;
48534;SDS011;34323;52.022;5.686;2023-11-18T07:25:46;31.40;;;16.13;;
48534;SDS011;34323;52.022;5.686;2023-11-18T07:28:12;27.88;;;15.50;;
48534;SDS011;34323;52.022;5.686;2023-11-18T07:30:41;31.90;;;16.33;;
48534;SDS011;34323;52.022;5.686;2023-11-18T07:33:18;29.02;;;15.18;;
48534;SDS011;34323;52.022;5.686;2023-11-18T07:35:45;28.55;;;15.45;;
48534;SDS011;34323;52.022;5.686;2023-11-18T07:38:15;28.13;;;14.35;;
48534;SDS011;34323;52.022;5.686;2023-11-18T07:40:41;27.42;;;14.48;;
48534;SDS011;34323;52.022;5.686;2023-11-18T07:43:11;26.27;;;14.82;;
48534;SDS011;34323;52.022;5.686;2023-11-18T07:45:37;25.35;;;14.07;;
48534;SDS011;34323;52.022;5.686;2023-11-18T07:48:07;25.83;;;13.10;;
48534;SDS011;34323;52.022;5.686;2023-11-18T07:50:35;32.03;;;15.00;;
48534;SDS011;34323;52.022;5.686;2023-11-18T07:53:01;25.05;;;13.00;;
48534;SDS011;34323;52.022;5.686;2023-11-18T07:55:28;24.20;;;14.25;;
48534;SDS011;34323;52.022;5.686;2023-11-18T07:57:54;25.42;;;13.88;;
48534;SDS011;34323;52.022;5.686;2023-11-18T08:00:20;34.28;;;14.70;;
48534;SDS011;34323;52.022;5.686;2023-11-18T08:02:46;24.65;;;13.45;;
48534;SDS011;34323;52.022;5.686;2023-11-18T08:05:11;30.67;;;14.70;;
48534;SDS011;34323;52.022;5.686;2023-11-18T08:07:43;23.00;;;13.57;;
48534;SDS011;34323;52.022;5.686;2023-11-18T08:10:10;27.02;;;13.32;;
48534;SDS011;34323;52.022;5.686;2023-11-18T08:12:38;26.58;;;14.52;;
48534;SDS011;34323;52.022;5.686;2023-11-18T08:15:04;24.13;;;14.30;;
48534;SDS011;34323;52.022;5.686;2023-11-18T08:17:34;24.63;;;13.52;;
48534;SDS011;34323;52.022;5.686;2023-11-18T08:20:00;26.92;;;13.60;;
48534;SDS011;34323;52.022;5.686;2023-11-18T08:22:31;27.45;;;13.32;;
48534;SDS011;34323;52.022;5.686;2023-11-18T08:24:57;22.45;;;12.93;;
48534;SDS011;34323;52.022;5.686;2023-11-18T08:27:23;30.50;;;14.32;;
48534;SDS011;34323;52.022;5.686;2023-11-18T08:29:49;27.45;;;13.75;;
48534;SDS011;34323;52.022;5.686;2023-11-18T08:32:15;24.08;;;13.57;;
48534;SDS011;34323;52.022;5.686;2023-11-18T08:34:40;32.85;;;13.30;;
48534;SDS011;34323;52.022;5.686;2023-11-18T08:37:06;27.77;;;12.52;;
48534;SDS011;34323;52.022;5.686;2023-11-18T08:39:32;24.98;;;13.23;;
48534;SDS011;34323;52.022;5.686;2023-11-18T08:41:58;29.02;;;13.80;;
48534;SDS011;34323;52.022;5.686;2023-11-18T08:44:24;25.77;;;13.45;;
48534;SDS011;34323;52.022;5.686;2023-11-18T08:46:53;20.92;;;12.40;;
48534;SDS011;34323;52.022;5.686;2023-11-18T08:49:22;24.98;;;12.75;;
48534;SDS011;34323;52.022;5.686;2023-11-18T08:51:48;23.77;;;13.05;;
48534;SDS011;34323;52.022;5.686;2023-11-18T08:54:16;24.35;;;12.50;;
48534;SDS011;34323;52.022;5.686;2023-11-18T08:56:50;22.60;;;13.45;;
48534;SDS011;34323;52.022;5.686;2023-11-18T08:59:19;27.88;;;12.55;;
48534;SDS011;34323;52.022;5.686;2023-11-18T09:01:50;21.05;;;12.85;;
48534;SDS011;34323;52.022;5.686;2023-11-18T09:04:23;20.27;;;12.38;;
48534;SDS011;34323;52.022;5.686;2023-11-18T09:06:49;23.38;;;13.43;;
48534;SDS011;34323;52.022;5.686;2023-11-18T09:09:19;20.65;;;11.32;;
48534;SDS011;34323;52.022;5.686;2023-11-18T09:11:51;19.08;;;11.23;;
48534;SDS011;34323;52.022;5.686;2023-11-18T09:14:18;21.77;;;11.73;;
48534;SDS011;34323;52.022;5.686;2023-11-18T09:16:44;21.25;;;10.77;;
48534;SDS011;34323;52.022;5.686;2023-11-18T09:19:10;21.80;;;9.98;;
48534;SDS011;34323;52.022;5.686;2023-11-18T09:21:36;18.73;;;10.30;;
48534;SDS011;34323;52.022;5.686;2023-11-18T09:24:02;19.20;;;9.82;;
48534;SDS011;34323;52.022;5.686;2023-11-18T09:26:33;20.02;;;10.23;;
48534;SDS011;34323;52.022;5.686;2023-11-18T09:29:00;21.40;;;10.63;;
48534;SDS011;34323;52.022;5.686;2023-11-18T09:31:26;20.38;;;10.07;;
48534;SDS011;34323;52.022;5.686;2023-11-18T09:33:52;22.77;;;9.80;;
48534;SDS011;34323;52.022;5.686;2023-11-18T09:36:18;20.50;;;9.40;;
48534;SDS011;34323;52.022;5.686;2023-11-18T09:38:44;22.15;;;9.50;;
48534;SDS011;34323;52.022;5.686;2023-11-18T09:41:14;16.00;;;8.50;;
48534;SDS011;34323;52.022;5.686;2023-11-18T09:43:42;16.80;;;8.75;;
48534;SDS011;34323;52.022;5.686;2023-11-18T09:46:15;20.58;;;9.05;;
48534;SDS011;34323;52.022;5.686;2023-11-18T09:51:12;20.70;;;9.13;;
48534;SDS011;34323;52.022;5.686;2023-11-18T09:53:42;23.67;;;8.35;;
48534;SDS011;34323;52.022;5.686;2023-11-18T09:56:13;14.20;;;8.30;;
48534;SDS011;34323;52.022;5.686;2023-11-18T09:58:54;13.85;;;7.45;;
48534;SDS011;34323;52.022;5.686;2023-11-18T10:01:30;19.02;;;8.75;;
48534;SDS011;34323;52.022;5.686;2023-11-18T10:04:03;17.95;;;8.82;;
48534;SDS011;34323;52.022;5.686;2023-11-18T10:06:32;25.70;;;9.27;;
48534;SDS011;34323;52.022;5.686;2023-11-18T10:09:02;12.55;;;7.38;;
48534;SDS011;34323;52.022;5.686;2023-11-18T10:11:40;15.55;;;7.45;;
48534;SDS011;34323;52.022;5.686;2023-11-18T10:14:07;13.00;;;7.75;;
48534;SDS011;34323;52.022;5.686;2023-11-18T10:16:33;18.75;;;8.10;;
48534;SDS011;34323;52.022;5.686;2023-11-18T10:19:00;18.33;;;7.45;;
48534;SDS011;34323;52.022;5.686;2023-11-18T10:21:36;16.05;;;7.38;;
48534;SDS011;34323;52.022;5.686;2023-11-18T10:24:05;19.73;;;7.82;;
48534;SDS011;34323;52.022;5.686;2023-11-18T10:26:44;14.88;;;7.47;;
48534;SDS011;34323;52.022;5.686;2023-11-18T10:29:19;17.85;;;7.95;;
48534;SDS011;34323;52.022;5.686;2023-11-18T10:31:45;15.95;;;7.85;;
48534;SDS011;34323;52.022;5.686;2023-11-18T10:34:13;26.80;;;8.02;;
48534;SDS011;34323;52.022;5.686;2023-11-18T10:37:04;13.35;;;7.47;;
48534;SDS011;34323;52.022;5.686;2023-11-18T10:39:31;16.75;;;7.35;;
48534;SDS011;34323;52.022;5.686;2023-11-18T10:42:00;16.13;;;7.60;;
48534;SDS011;34323;52.022;5.686;2023-11-18T10:44:26;15.32;;;7.40;;
48534;SDS011;34323;52.022;5.686;2023-11-18T10:46:54;11.80;;;6.07;;
48534;SDS011;34323;52.022;5.686;2023-11-18T10:49:24;15.95;;;6.75;;
48534;SDS011;34323;52.022;5.686;2023-11-18T10:51:55;15.25;;;6.70;;
48534;SDS011;34323;52.022;5.686;2023-11-18T10:54:22;14.98;;;6.70;;
48534;SDS011;34323;52.022;5.686;2023-11-18T10:56:48;13.80;;;6.90;;
48534;SDS011;34323;52.022;5.686;2023-11-18T10:59:15;15.32;;;6.50;;
48534;SDS011;34323;52.022;5.686;2023-11-18T11:01:42;13.88;;;6.70;;
48534;SDS011;34323;52.022;5.686;2023-11-18T11:04:14;15.38;;;6.63;;
48534;SDS011;34323;52.022;5.686;2023-11-18T11:06:46;17.43;;;7.30;;
48534;SDS011;34323;52.022;5.686;2023-11-18T11:09:22;10.93;;;6.70;;
48534;SDS011;34323;52.022;5.686;2023-11-18T11:12:02;18.23;;;7.53;;
48534;SDS011;34323;52.022;5.686;2023-11-18T11:14:42;12.30;;;6.47;;
48534;SDS011;34323;52.022;5.686;2023-11-18T11:17:16;17.23;;;7.13;;
48534;SDS011;34323;52.022;5.686;2023-11-18T11:19:55;13.73;;;6.75;;
48534;SDS011;34323;52.022;5.686;2023-11-18T11:22:46;15.50;;;6.95;;
48534;SDS011;34323;52.022;5.686;2023-11-18T11:28:10;15.27;;;6.95;;
48534;SDS011;34323;52.022;5.686;2023-11-18T11:30:40;14.10;;;7.03;;
48534;SDS011;34323;52.022;5.686;2023-11-18T11:33:29;13.77;;;6.82;;
48534;SDS011;34323;52.022;5.686;2023-11-18T11:36:05;19.20;;;7.85;;
48534;SDS011;34323;52.022;5.686;2023-11-18T11:38:36;17.13;;;7.25;;
48534;SDS011;34323;52.022;5.686;2023-11-18T11:41:06;11.60;;;6.47;;
48534;SDS011;34323;52.022;5.686;2023-11-18T11:43:34;14.43;;;6.88;;
48534;SDS011;34323;52.022;5.686;2023-11-18T11:46:00;19.63;;;7.32;;
48534;SDS011;34323;52.022;5.686;2023-11-18T11:48:35;14.10;;;6.07;;
48534;SDS011;34323;52.022;5.686;2023-11-18T11:56:45;18.38;;;8.65;;
48534;SDS011;34323;52.022;5.686;2023-11-18T11:59:13;25.08;;;7.15;;
48534;SDS011;34323;52.022;5.686;2023-11-18T12:01:41;16.30;;;7.15;;
48534;SDS011;34323;52.022;5.686;2023-11-18T12:04:12;13.35;;;6.78;;
48534;SDS011;34323;52.022;5.686;2023-11-18T12:06:48;9.50;;;6.20;;
48534;SDS011;34323;52.022;5.686;2023-11-18T12:09:18;18.20;;;6.53;;
48534;SDS011;34323;52.022;5.686;2023-11-18T12:11:45;13.00;;;7.55;;
48534;SDS011;34323;52.022;5.686;2023-11-18T12:14:15;11.25;;;6.53;;
48534;SDS011;34323;52.022;5.686;2023-11-18T12:22:09;13.93;;;6.25;;
48534;SDS011;34323;52.022;5.686;2023-11-18T12:24:42;14.27;;;5.72;;
48534;SDS011;34323;52.022;5.686;2023-11-18T12:27:09;8.77;;;5.57;;
48534;SDS011;34323;52.022;5.686;2023-11-18T12:29:41;12.18;;;5.63;;
48534;SDS011;34323;52.022;5.686;2023-11-18T12:32:10;16.83;;;6.00;;
48534;SDS011;34323;52.022;5.686;2023-11-18T12:34:51;8.88;;;5.15;;
48534;SDS011;34323;52.022;5.686;2023-11-18T12:37:34;14.07;;;4.97;;
48534;SDS011;34323;52.022;5.686;2023-11-18T12:43:11;17.83;;;6.18;;
48534;SDS011;34323;52.022;5.686;2023-11-18T12:48:41;10.23;;;5.28;;
48534;SDS011;34323;52.022;5.686;2023-11-18T12:51:09;18.88;;;5.80;;
48534;SDS011;34323;52.022;5.686;2023-11-18T12:53:45;12.45;;;5.35;;
48534;SDS011;34323;52.022;5.686;2023-11-18T12:56:14;13.55;;;4.85;;
48534;SDS011;34323;52.022;5.686;2023-11-18T12:58:50;14.50;;;5.10;;
48534;SDS011;34323;52.022;5.686;2023-11-18T13:01:16;14.25;;;5.57;;
48534;SDS011;34323;52.022;5.686;2023-11-18T13:03:42;8.40;;;4.82;;
48534;SDS011;34323;52.022;5.686;2023-11-18T13:06:09;13.30;;;5.45;;
48534;SDS011;34323;52.022;5.686;2023-11-18T13:08:37;8.60;;;4.28;;
48534;SDS011;34323;52.022;5.686;2023-11-18T13:11:03;9.82;;;5.30;;
48534;SDS011;34323;52.022;5.686;2023-11-18T13:13:36;12.43;;;4.43;;
48534;SDS011;34323;52.022;5.686;2023-11-18T13:16:02;11.65;;;5.28;;
48534;SDS011;34323;52.022;5.686;2023-11-18T13:18:35;7.82;;;4.50;;
48534;SDS011;34323;52.022;5.686;2023-11-18T13:21:07;11.38;;;5.03;;
48534;SDS011;34323;52.022;5.686;2023-11-18T13:23:35;8.10;;;4.85;;
48534;SDS011;34323;52.022;5.686;2023-11-18T13:26:01;8.95;;;4.43;;
48534;SDS011;34323;52.022;5.686;2023-11-18T13:28:30;12.90;;;4.80;;
48534;SDS011;34323;52.022;5.686;2023-11-18T13:30:57;11.63;;;4.45;;
48534;SDS011;34323;52.022;5.686;2023-11-18T13:33:23;9.07;;;4.30;;
48534;SDS011;34323;52.022;5.686;2023-11-18T13:35:49;8.45;;;3.97;;
48534;SDS011;34323;52.022;5.686;2023-11-18T13:38:14;4.70;;;3.22;;
48534;SDS011;34323;52.022;5.686;2023-11-18T13:43:12;7.53;;;2.77;;
48534;SDS011;34323;52.022;5.686;2023-11-18T13:45:38;6.65;;;3.45;;
48534;SDS011;34323;52.022;5.686;2023-11-18T13:48:05;8.52;;;3.60;;
48534;SDS011;34323;52.022;5.686;2023-11-18T13:50:34;9.13;;;3.13;;
48534;SDS011;34323;52.022;5.686;2023-11-18T13:53:02;14.27;;;5.03;;
48534;SDS011;34323;52.022;5.686;2023-11-18T13:55:31;16.95;;;7.80;;
48534;SDS011;34323;52.022;5.686;2023-11-18T13:57:57;8.95;;;4.20;;
48534;SDS011;34323;52.022;5.686;2023-11-18T14:00:27;6.65;;;3.25;;
48534;SDS011;34323;52.022;5.686;2023-11-18T14:02:54;6.50;;;2.85;;
48534;SDS011;34323;52.022;5.686;2023-11-18T14:05:21;6.35;;;3.10;;
48534;SDS011;34323;52.022;5.686;2023-11-18T14:07:49;4.93;;;2.63;;
48534;SDS011;34323;52.022;5.686;2023-11-18T14:10:17;8.20;;;2.88;;
48534;SDS011;34323;52.022;5.686;2023-11-18T14:13:03;4.97;;;2.47;;
48534;SDS011;34323;52.022;5.686;2023-11-18T14:15:37;5.97;;;2.60;;
48534;SDS011;34323;52.022;5.686;2023-11-18T14:18:03;5.40;;;3.03;;
48534;SDS011;34323;52.022;5.686;2023-11-18T14:20:29;4.00;;;2.10;;
48534;SDS011;34323;52.022;5.686;2023-11-18T14:22:56;7.10;;;2.38;;
48534;SDS011;34323;52.022;5.686;2023-11-18T14:25:23;4.13;;;1.80;;
48534;SDS011;34323;52.022;5.686;2023-11-18T14:27:49;9.95;;;2.20;;
48534;SDS011;34323;52.022;5.686;2023-11-18T14:30:16;3.53;;;1.92;;
48534;SDS011;34323;52.022;5.686;2023-11-18T14:32:42;3.53;;;1.85;;
48534;SDS011;34323;52.022;5.686;2023-11-18T14:35:08;2.28;;;1.65;;
48534;SDS011;34323;52.022;5.686;2023-11-18T14:37:38;3.78;;;2.17;;
48534;SDS011;34323;52.022;5.686;2023-11-18T14:40:09;4.50;;;1.85;;
48534;SDS011;34323;52.022;5.686;2023-11-18T14:42:42;4.13;;;1.50;;
48534;SDS011;34323;52.022;5.686;2023-11-18T14:45:08;3.10;;;1.70;;
48534;SDS011;34323;52.022;5.686;2023-11-18T14:47:35;4.65;;;1.80;;
48534;SDS011;34323;52.022;5.686;2023-11-18T14:50:01;2.60;;;1.60;;
48534;SDS011;34323;52.022;5.686;2023-11-18T14:52:28;2.05;;;1.60;;
48534;SDS011;34323;52.022;5.686;2023-11-18T14:54:54;2.65;;;1.50;;
48534;SDS011;34323;52.022;5.686;2023-11-18T14:57:19;2.47;;;1.65;;
48534;SDS011;34323;52.022;5.686;2023-11-18T14:59:45;2.85;;;1.85;;
48534;SDS011;34323;52.022;5.686;2023-11-18T15:02:11;1.92;;;1.50;;
48534;SDS011;34323;52.022;5.686;2023-11-18T15:04:37;4.90;;;2.30;;